Time;durP1;ratioP1;P1;durP2;ratioP2;P2;SDS_P1;SDS_P2;PMS_P1;PMS_P2;Temp;Humidity;BMP_temperature;BMP_pressure;BME280_temperature;BME280_humidity;BME280_pressure;Samples;Min_cycle;Max_cycle;Signal;HPM_P1;HPM_P2
2023/12/21 00:02:04;;;;;;;;;2.00;1.50;;;;;-128.00;-1.00;-1.00;106440;1259;1002595;-30
2023/12/21 00:04:32;;;;;;;;;1.00;1.00;;;;;-128.00;-1.00;-1.00;106428;1260;1002668;-30
2023/12/21 00:07:00;;;;;;;;;1.00;1.00;;;;;-128.00;-1.00;-1.00;106388;1259;1004777;-30
2023/12/21 00:09:28;;;;;;;;;2.00;2.00;;;;;-128.00;-1.00;-1.00;106389;1250;1006345;-30
2023/12/21 00:11:55;;;;;;;;;3.00;1.00;;;;;-128.00;-1.00;-1.00;106302;1258;1002661;-30
2023/12/21 00:14:26;;;;;;;;;2.00;1.00;;;;;-128.00;-1.00;-1.00;106313;1260;1002749;-30
2023/12/21 00:16:54;;;;;;;;;4.00;1.00;;;;;-128.00;-1.00;-1.00;106417;1260;1006852;-30
2023/12/21 00:19:22;;;;;;;;;1.00;1.00;;;;;-128.00;-1.00;-1.00;106396;1250;1002159;-31
2023/12/21 00:21:49;;;;;;;;;1.00;1.00;;;;;-128.00;-1.00;-1.00;106398;1259;1002901;-30
2023/12/21 00:24:16;;;;;;;;;2.33;2.00;;;;;-128.00;-1.00;-1.00;106398;1259;1003271;-30
2023/12/21 00:26:44;;;;;;;;;2.67;2.67;;;;;-128.00;-1.00;-1.00;106404;1259;1003212;-30
2023/12/21 00:29:13;;;;;;;;;1.00;1.00;;;;;-128.00;-1.00;-1.00;106400;1259;1002617;-30
2023/12/21 00:31:40;;;;;;;;;1.00;1.00;;;;;-128.00;-1.00;-1.00;106401;1258;1006037;-30
2023/12/21 00:34:07;;;;;;;;;1.00;1.00;;;;;-128.00;-1.00;-1.00;106423;1259;1002809;-31
2023/12/21 00:36:35;;;;;;;;;2.00;2.00;;;;;-128.00;-1.00;-1.00;106401;1260;1005932;-30
2023/12/21 00:39:02;;;;;;;;;1.00;1.00;;;;;-128.00;-1.00;-1.00;106386;1258;1002891;-30
2023/12/21 00:41:30;;;;;;;;;1.00;1.00;;;;;-128.00;-1.00;-1.00;106401;1250;1002889;-30
2023/12/21 00:43:58;;;;;;;;;1.00;1.00;;;;;-128.00;-1.00;-1.00;106427;1260;1002421;-30
2023/12/21 00:46:25;;;;;;;;;1.00;1.00;;;;;-128.00;-1.00;-1.00;106399;1259;1002746;-31
2023/12/21 00:48:52;;;;;;;;;1.00;1.00;;;;;-128.00;-1.00;-1.00;106422;1259;1003631;-31
2023/12/21 00:51:20;;;;;;;;;1.00;1.00;;;;;-128.00;-1.00;-1.00;106428;1250;1002612;-30
2023/12/21 00:53:47;;;;;;;;;1.50;1.50;;;;;-128.00;-1.00;-1.00;106439;1266;1002930;-31
2023/12/21 00:56:15;;;;;;;;;1.00;1.00;;;;;-128.00;-1.00;-1.00;106423;1259;1002779;-30
2023/12/21 00:58:42;;;;;;;;;2.00;2.00;;;;;-128.00;-1.00;-1.00;106416;1259;1002732;-30
2023/12/21 01:01:09;;;;;;;;;1.00;1.00;;;;;-128.00;-1.00;-1.00;106394;1259;1002559;-30
2023/12/21 01:03:37;;;;;;;;;1.00;1.00;;;;;-128.00;-1.00;-1.00;106424;1258;1002662;-30
2023/12/21 01:06:04;;;;;;;;;1.00;1.00;;;;;-128.00;-1.00;-1.00;106402;1250;1002357;-30
2023/12/21 01:08:32;;;;;;;;;1.00;1.00;;;;;-128.00;-1.00;-1.00;106399;1260;1002522;-31
2023/12/21 01:10:59;;;;;;;;;1.33;1.33;;;;;-128.00;-1.00;-1.00;106412;1259;1002744;-30
2023/12/21 01:13:27;;;;;;;;;1.00;1.00;;;;;-128.00;-1.00;-1.00;106411;1260;1002682;-30
2023/12/21 01:15:54;;;;;;;;;1.50;1.50;;;;;-128.00;-1.00;-1.00;106420;1250;1002386;-30
2023/12/21 01:18:22;;;;;;;;;1.00;1.00;;;;;-128.00;-1.00;-1.00;106413;1260;1002776;-30
2023/12/21 01:20:49;;;;;;;;;1.00;1.00;;;;;-128.00;-1.00;-1.00;106421;1259;1003326;-30
2023/12/21 01:23:17;;;;;;;;;1.00;1.00;;;;;-128.00;-1.00;-1.00;106376;1259;1002957;-30
2023/12/21 01:25:45;;;;;;;;;1.00;1.00;;;;;-128.00;-1.00;-1.00;106441;1260;1007433;-30
2023/12/21 01:28:12;;;;;;;;;1.50;1.50;;;;;-128.00;-1.00;-1.00;106377;1259;1003164;-30
2023/12/21 01:30:40;;;;;;;;;2.00;1.00;;;;;-128.00;-1.00;-1.00;106443;1258;1002716;-31
2023/12/21 01:33:07;;;;;;;;;1.00;1.00;;;;;-128.00;-1.00;-1.00;106434;1260;1002384;-30
2023/12/21 01:35:35;;;;;;;;;1.00;1.00;;;;;-128.00;-1.00;-1.00;106394;1259;1002672;-30
2023/12/21 01:38:02;;;;;;;;;1.00;1.00;;;;;-128.00;-1.00;-1.00;106428;1259;1002635;-30
2023/12/21 01:40:30;;;;;;;;;1.00;1.00;;;;;-128.00;-1.00;-1.00;106427;1259;1002696;-30
2023/12/21 01:42:57;;;;;;;;;1.00;1.00;;;;;-128.00;-1.00;-1.00;106419;1250;1005880;-30
2023/12/21 01:45:25;;;;;;;;;1.00;1.00;;;;;-128.00;-1.00;-1.00;106429;1266;1002714;-34
2023/12/21 01:47:52;;;;;;;;;1.00;1.00;;;;;-128.00;-1.00;-1.00;106393;1258;1002912;-30
2023/12/21 01:50:20;;;;;;;;;1.00;1.00;;;;;-128.00;-1.00;-1.00;106399;1250;1004074;-30
2023/12/21 01:52:47;;;;;;;;;2.00;1.00;;;;;-128.00;-1.00;-1.00;106404;1259;1002558;-30
2023/12/21 01:55:14;;;;;;;;;1.00;1.00;;;;;-128.00;-1.00;-1.00;106414;1260;1002475;-30
2023/12/21 01:57:43;;;;;;;;;2.00;2.00;;;;;-128.00;-1.00;-1.00;106403;1260;1002813;-30
2023/12/21 02:00:10;;;;;;;;;1.00;1.00;;;;;-128.00;-1.00;-1.00;106428;1260;1006482;-30
2023/12/21 02:02:38;;;;;;;;;1.00;1.00;;;;;-128.00;-1.00;-1.00;106425;1259;1002758;-31
2023/12/21 02:05:05;;;;;;;;;1.00;1.00;;;;;-128.00;-1.00;-1.00;106417;1258;1002765;-30
2023/12/21 02:07:33;;;;;;;;;1.00;1.00;;;;;-128.00;-1.00;-1.00;106389;1260;1002868;-31
2023/12/21 02:10:00;;;;;;;;;1.00;1.00;;;;;-128.00;-1.00;-1.00;106400;1259;1002657;-30
2023/12/21 02:12:28;;;;;;;;;1.00;1.00;;;;;-128.00;-1.00;-1.00;106396;1258;1002695;-30
2023/12/21 02:14:55;;;;;;;;;1.00;1.00;;;;;-128.00;-1.00;-1.00;106372;1260;1002634;-31
2023/12/21 02:17:22;;;;;;;;;1.33;1.00;;;;;-128.00;-1.00;-1.00;106387;1259;1002504;-30
2023/12/21 02:19:50;;;;;;;;;1.00;1.00;;;;;-128.00;-1.00;-1.00;106410;1250;1002494;-30
2023/12/21 02:22:17;;;;;;;;;2.00;2.00;;;;;-128.00;-1.00;-1.00;106376;1259;1002549;-30
2023/12/21 02:24:45;;;;;;;;;1.00;1.00;;;;;-128.00;-1.00;-1.00;106389;1250;1003248;-30
2023/12/21 02:27:12;;;;;;;;;1.00;1.00;;;;;-128.00;-1.00;-1.00;106370;1259;1004553;-31
2023/12/21 02:29:40;;;;;;;;;1.00;1.00;;;;;-128.00;-1.00;-1.00;106396;1260;1002641;-30
2023/12/21 02:32:07;;;;;;;;;1.00;1.00;;;;;-128.00;-1.00;-1.00;106384;1259;1002794;-30
2023/12/21 02:34:34;;;;;;;;;1.00;1.00;;;;;-128.00;-1.00;-1.00;106404;1259;1002514;-30
2023/12/21 02:37:02;;;;;;;;;1.00;1.00;;;;;-128.00;-1.00;-1.00;106404;1259;1002657;-30
2023/12/21 02:39:29;;;;;;;;;1.00;1.00;;;;;-128.00;-1.00;-1.00;106388;1260;1004269;-30
2023/12/21 02:41:57;;;;;;;;;1.00;1.00;;;;;-128.00;-1.00;-1.00;106384;1250;1002264;-31
2023/12/21 02:44:24;;;;;;;;;2.00;1.00;;;;;-128.00;-1.00;-1.00;106410;1259;1002200;-30
2023/12/21 02:46:52;;;;;;;;;2.00;1.00;;;;;-128.00;-1.00;-1.00;106382;1250;1002768;-30
2023/12/21 02:49:20;;;;;;;;;1.00;1.00;;;;;-128.00;-1.00;-1.00;106433;1260;1002829;-30
2023/12/21 02:51:47;;;;;;;;;3.00;1.00;;;;;-128.00;-1.00;-1.00;106406;1259;1007627;-30
2023/12/21 02:54:15;;;;;;;;;1.00;1.00;;;;;-128.00;-1.00;-1.00;106378;1266;1002442;-31
2023/12/21 02:56:42;;;;;;;;;1.00;1.00;;;;;-128.00;-1.00;-1.00;106401;1260;1002621;-30
2023/12/21 02:59:10;;;;;;;;;1.00;1.00;;;;;-128.00;-1.00;-1.00;106403;1260;1002933;-30
2023/12/21 03:01:37;;;;;;;;;1.33;1.00;;;;;-128.00;-1.00;-1.00;106424;1259;1003467;-30
2023/12/21 03:04:04;;;;;;;;;1.00;1.00;;;;;-128.00;-1.00;-1.00;106392;1259;1002237;-31
2023/12/21 03:06:32;;;;;;;;;1.00;1.00;;;;;-128.00;-1.00;-1.00;106380;1266;1003236;-31
2023/12/21 03:08:59;;;;;;;;;2.33;2.33;;;;;-128.00;-1.00;-1.00;106377;1259;1002516;-30
2023/12/21 03:11:27;;;;;;;;;1.00;1.00;;;;;-128.00;-1.00;-1.00;106384;1259;1003464;-31
2023/12/21 03:13:54;;;;;;;;;1.50;1.50;;;;;-128.00;-1.00;-1.00;106410;1260;1002794;-31
2023/12/21 03:16:22;;;;;;;;;1.00;1.00;;;;;-128.00;-1.00;-1.00;106423;1260;1004118;-31
2023/12/21 03:18:49;;;;;;;;;1.00;1.00;;;;;-128.00;-1.00;-1.00;106421;1259;1002993;-30
2023/12/21 03:21:16;;;;;;;;;1.00;1.00;;;;;-128.00;-1.00;-1.00;106406;1250;1004521;-30
2023/12/21 03:23:44;;;;;;;;;1.00;1.00;;;;;-128.00;-1.00;-1.00;106351;1250;1002742;-31
2023/12/21 03:26:11;;;;;;;;;1.00;1.00;;;;;-128.00;-1.00;-1.00;106393;1259;1002848;-30
2023/12/21 03:28:44;;;;;;;;;1.00;1.00;;;;;-128.00;-1.00;-1.00;106389;1259;1002825;-30
2023/12/21 03:31:11;;;;;;;;;1.00;1.00;;;;;-128.00;-1.00;-1.00;106412;1258;1006929;-30
2023/12/21 03:33:39;;;;;;;;;1.00;1.00;;;;;-128.00;-1.00;-1.00;106391;1250;1002695;-31
2023/12/21 03:36:06;;;;;;;;;1.00;1.00;;;;;-128.00;-1.00;-1.00;106393;1259;1003059;-30
2023/12/21 03:38:34;;;;;;;;;1.00;1.00;;;;;-128.00;-1.00;-1.00;106389;1259;1002470;-30
2023/12/21 03:41:01;;;;;;;;;2.00;2.00;;;;;-128.00;-1.00;-1.00;106385;1258;1002878;-30
2023/12/21 03:43:29;;;;;;;;;1.00;1.00;;;;;-128.00;-1.00;-1.00;106402;1259;1002642;-30
2023/12/21 03:45:56;;;;;;;;;1.00;1.00;;;;;-128.00;-1.00;-1.00;106415;1259;1002829;-30
2023/12/21 03:48:24;;;;;;;;;1.00;1.00;;;;;-128.00;-1.00;-1.00;106425;1250;1002749;-30
2023/12/21 03:50:51;;;;;;;;;1.00;1.00;;;;;-128.00;-1.00;-1.00;106398;1259;1002932;-30
2023/12/21 03:53:19;;;;;;;;;1.00;1.00;;;;;-128.00;-1.00;-1.00;106389;1258;1002368;-30
2023/12/21 03:55:46;;;;;;;;;1.00;1.00;;;;;-128.00;-1.00;-1.00;106405;1259;1002708;-31
2023/12/21 03:58:13;;;;;;;;;1.00;1.00;;;;;-128.00;-1.00;-1.00;106394;1259;1002981;-30
2023/12/21 04:00:41;;;;;;;;;2.00;2.00;;;;;-128.00;-1.00;-1.00;106400;1250;1002823;-31
2023/12/21 04:03:08;;;;;;;;;1.00;1.00;;;;;-128.00;-1.00;-1.00;106378;1259;1002642;-30
2023/12/21 04:05:36;;;;;;;;;1.00;1.00;;;;;-128.00;-1.00;-1.00;106418;1260;1002548;-30
2023/12/21 04:08:03;;;;;;;;;1.00;1.00;;;;;-128.00;-1.00;-1.00;106394;1266;1003407;-31
2023/12/21 04:10:30;;;;;;;;;1.00;1.00;;;;;-128.00;-1.00;-1.00;106422;1259;1002719;-30
2023/12/21 04:12:58;;;;;;;;;1.00;1.00;;;;;-128.00;-1.00;-1.00;106437;1260;1003120;-30
2023/12/21 04:15:25;;;;;;;;;1.00;1.00;;;;;-128.00;-1.00;-1.00;106431;1259;1002660;-30
2023/12/21 04:17:53;;;;;;;;;1.50;1.00;;;;;-128.00;-1.00;-1.00;106372;1260;1003182;-30
2023/12/21 04:20:20;;;;;;;;;1.00;1.00;;;;;-128.00;-1.00;-1.00;106404;1260;1002459;-30
2023/12/21 04:22:48;;;;;;;;;1.00;1.00;;;;;-128.00;-1.00;-1.00;106389;1266;1003302;-30
2023/12/21 04:25:15;;;;;;;;;1.00;1.00;;;;;-128.00;-1.00;-1.00;106403;1259;1002855;-30
2023/12/21 04:27:42;;;;;;;;;1.00;1.00;;;;;-128.00;-1.00;-1.00;106408;1259;1002751;-30
2023/12/21 04:30:10;;;;;;;;;2.00;2.00;;;;;-128.00;-1.00;-1.00;106417;1258;1002491;-31
2023/12/21 04:32:37;;;;;;;;;1.00;1.00;;;;;-128.00;-1.00;-1.00;106391;1260;1002621;-31
2023/12/21 04:35:05;;;;;;;;;1.00;1.00;;;;;-128.00;-1.00;-1.00;106387;1254;1002683;-29
2023/12/21 04:37:32;;;;;;;;;1.00;1.00;;;;;-128.00;-1.00;-1.00;106411;1259;1002147;-30
2023/12/21 04:40:00;;;;;;;;;1.00;1.00;;;;;-128.00;-1.00;-1.00;106391;1260;1002731;-30
2023/12/21 04:42:28;;;;;;;;;2.50;2.50;;;;;-128.00;-1.00;-1.00;106396;1260;1002230;-30
2023/12/21 04:44:55;;;;;;;;;1.33;1.33;;;;;-128.00;-1.00;-1.00;106396;1260;1002803;-30
2023/12/21 04:47:22;;;;;;;;;1.00;1.00;;;;;-128.00;-1.00;-1.00;106424;1260;1002466;-30
2023/12/21 04:49:50;;;;;;;;;1.00;1.00;;;;;-128.00;-1.00;-1.00;106383;1260;1002563;-31
2023/12/21 04:52:17;;;;;;;;;1.00;1.00;;;;;-128.00;-1.00;-1.00;106397;1253;1002625;-30
2023/12/21 04:54:45;;;;;;;;;1.00;1.00;;;;;-128.00;-1.00;-1.00;106365;1259;1002887;-31
2023/12/21 04:57:12;;;;;;;;;2.00;2.00;;;;;-128.00;-1.00;-1.00;106365;1260;1002456;-31
2023/12/21 04:59:40;;;;;;;;;3.00;3.00;;;;;-128.00;-1.00;-1.00;106385;1260;1002386;-30
2023/12/21 05:02:08;;;;;;;;;2.00;2.00;;;;;-128.00;-1.00;-1.00;106373;1259;1002408;-31
2023/12/21 05:04:35;;;;;;;;;2.00;2.00;;;;;-128.00;-1.00;-1.00;106334;1259;1002755;-30
2023/12/21 05:07:08;;;;;;;;;2.00;2.00;;;;;-128.00;-1.00;-1.00;106389;1252;1003021;-30
2023/12/21 05:09:36;;;;;;;;;1.00;1.00;;;;;-128.00;-1.00;-1.00;106377;1260;1006760;-30
2023/12/21 05:12:03;;;;;;;;;1.50;1.50;;;;;-128.00;-1.00;-1.00;106421;1260;1002813;-30
2023/12/21 05:14:31;;;;;;;;;2.00;2.00;;;;;-128.00;-1.00;-1.00;106354;1260;1003047;-31
2023/12/21 05:16:58;;;;;;;;;2.00;2.00;;;;;-128.00;-1.00;-1.00;106387;1260;1002625;-30
2023/12/21 05:19:26;;;;;;;;;2.00;2.00;;;;;-128.00;-1.00;-1.00;106351;1251;1002822;-30
2023/12/21 05:21:53;;;;;;;;;1.00;1.00;;;;;-128.00;-1.00;-1.00;106384;1259;1002920;-30
2023/12/21 05:24:21;;;;;;;;;2.00;2.00;;;;;-128.00;-1.00;-1.00;106395;1260;1002790;-30
2023/12/21 05:26:49;;;;;;;;;1.00;1.00;;;;;-128.00;-1.00;-1.00;106372;1260;1002686;-30
2023/12/21 05:29:16;;;;;;;;;3.00;3.00;;;;;-128.00;-1.00;-1.00;106374;1251;1002465;-30
2023/12/21 05:31:44;;;;;;;;;1.00;1.00;;;;;-128.00;-1.00;-1.00;106366;1260;1003131;-29
2023/12/21 05:34:11;;;;;;;;;2.00;2.00;;;;;-128.00;-1.00;-1.00;106414;1260;1003509;-30
2023/12/21 05:36:38;;;;;;;;;2.00;2.00;;;;;-128.00;-1.00;-1.00;106365;1259;1003234;-30
2023/12/21 05:39:08;;;;;;;;;2.50;2.50;;;;;-128.00;-1.00;-1.00;106408;1250;1002991;-29
2023/12/21 05:41:36;;;;;;;;;1.00;1.00;;;;;-128.00;-1.00;-1.00;106436;1258;1006982;-29
2023/12/21 05:44:04;;;;;;;;;2.00;2.00;;;;;-128.00;-1.00;-1.00;106396;1250;1003080;-29
2023/12/21 05:46:32;;;;;;;;;2.00;2.00;;;;;-128.00;-1.00;-1.00;106405;1260;1006780;-29
2023/12/21 05:48:59;;;;;;;;;3.00;3.00;;;;;-128.00;-1.00;-1.00;106392;1260;1003260;-30
2023/12/21 05:51:27;;;;;;;;;3.00;3.00;;;;;-128.00;-1.00;-1.00;106372;1259;1002712;-30
2023/12/21 05:53:54;;;;;;;;;1.00;1.00;;;;;-128.00;-1.00;-1.00;106327;1260;1003697;-29
2023/12/21 05:56:21;;;;;;;;;2.67;2.67;;;;;-128.00;-1.00;-1.00;106272;1260;1002620;-30
2023/12/21 05:58:49;;;;;;;;;3.00;3.00;;;;;-128.00;-1.00;-1.00;106406;1250;1002731;-30
2023/12/21 06:01:17;;;;;;;;;3.33;3.33;;;;;-128.00;-1.00;-1.00;106442;1260;1003642;-29
2023/12/21 06:03:44;;;;;;;;;2.50;2.50;;;;;-128.00;-1.00;-1.00;106382;1260;1006174;-29
2023/12/21 06:06:13;;;;;;;;;2.00;2.00;;;;;-128.00;-1.00;-1.00;106415;1260;1002760;-29
2023/12/21 06:08:40;;;;;;;;;3.00;3.00;;;;;-128.00;-1.00;-1.00;106378;1250;1007244;-30
2023/12/21 06:11:08;;;;;;;;;3.00;3.00;;;;;-128.00;-1.00;-1.00;106400;1250;1003039;-30
2023/12/21 06:13:35;;;;;;;;;3.00;3.00;;;;;-128.00;-1.00;-1.00;106384;1266;1003257;-29
2023/12/21 06:16:02;;;;;;;;;1.50;1.50;;;;;-128.00;-1.00;-1.00;106396;1260;1002727;-29
2023/12/21 06:18:30;;;;;;;;;3.00;3.00;;;;;-128.00;-1.00;-1.00;106405;1251;1003063;-30
2023/12/21 06:20:57;;;;;;;;;3.00;3.00;;;;;-128.00;-1.00;-1.00;106398;1260;1005831;-30
2023/12/21 06:23:25;;;;;;;;;1.33;1.33;;;;;-128.00;-1.00;-1.00;106150;1266;1003171;-29
2023/12/21 06:25:52;;;;;;;;;3.00;3.00;;;;;-128.00;-1.00;-1.00;106385;1259;1002771;-29
2023/12/21 06:28:20;;;;;;;;;3.00;3.00;;;;;-128.00;-1.00;-1.00;106430;1259;1003172;-30
2023/12/21 06:30:47;;;;;;;;;2.50;2.50;;;;;-128.00;-1.00;-1.00;106386;1266;1002907;-30
2023/12/21 06:33:14;;;;;;;;;3.00;3.00;;;;;-128.00;-1.00;-1.00;106398;1259;1002787;-30
2023/12/21 06:35:42;;;;;;;;;3.00;3.00;;;;;-128.00;-1.00;-1.00;106371;1258;1002568;-30
2023/12/21 06:38:09;;;;;;;;;2.00;2.00;;;;;-128.00;-1.00;-1.00;106395;1259;1002851;-29
2023/12/21 06:40:37;;;;;;;;;1.00;1.00;;;;;-128.00;-1.00;-1.00;106372;1266;1002867;-29
2023/12/21 06:43:04;;;;;;;;;3.00;3.00;;;;;-128.00;-1.00;-1.00;106424;1260;1002457;-29
2023/12/21 06:45:32;;;;;;;;;3.00;3.00;;;;;-128.00;-1.00;-1.00;106382;1266;1003549;-29
2023/12/21 06:47:59;;;;;;;;;3.00;3.00;;;;;-128.00;-1.00;-1.00;106421;1260;1002338;-29
2023/12/21 06:50:27;;;;;;;;;3.00;3.00;;;;;-128.00;-1.00;-1.00;106371;1259;1002567;-30
2023/12/21 06:52:54;;;;;;;;;3.00;3.00;;;;;-128.00;-1.00;-1.00;106400;1260;1003320;-30
2023/12/21 06:55:22;;;;;;;;;3.67;3.67;;;;;-128.00;-1.00;-1.00;106389;1258;1003538;-29
2023/12/21 06:57:49;;;;;;;;;3.00;3.00;;;;;-128.00;-1.00;-1.00;106396;1259;1002600;-29
2023/12/21 07:00:17;;;;;;;;;3.33;3.33;;;;;-128.00;-1.00;-1.00;106382;1260;1002723;-29
2023/12/21 07:02:44;;;;;;;;;6.00;4.00;;;;;-128.00;-1.00;-1.00;106345;1259;1002206;-30
2023/12/21 07:07:35;;;;;;;;;4.00;4.00;;;;;21.76;46.92;98636.52;106933;1294;18917;-28
2023/12/21 07:10:02;;;;;;;;;5.33;5.00;;;;;21.48;45.22;98632.33;109338;1257;19754;-29
2023/12/21 07:12:30;;;;;;;;;5.00;5.00;;;;;21.37;44.73;98626.36;109301;1254;21796;-29
2023/12/21 07:14:57;;;;;;;;;4.00;4.00;;;;;21.27;44.12;98613.65;109312;1254;19121;-29
2023/12/21 07:17:25;;;;;;;;;4.00;4.00;;;;;21.19;43.75;98609.29;109329;1255;19784;-28
2023/12/21 07:19:52;;;;;;;;;5.00;5.00;;;;;-98.17;7.93;19720.00;106524;1254;1002749;-29
2023/12/21 07:22:19;;;;;;;;;5.00;5.00;;;;;-128.00;-1.00;-1.00;106220;1264;1006934;-29
2023/12/21 07:24:47;;;;;;;;;7.33;5.00;;;;;-128.00;-1.00;-1.00;106408;1260;1002725;-29
2023/12/21 07:27:15;;;;;;;;;5.00;5.00;;;;;-128.00;-1.00;-1.00;106372;1260;1003525;-29
2023/12/21 07:29:44;;;;;;;;;6.33;5.00;;;;;-128.00;-1.00;-1.00;106294;1260;1006451;-30
2023/12/21 07:32:12;;;;;;;;;10.00;10.00;;;;;-128.00;-1.00;-1.00;106319;1260;1006833;-30
2023/12/21 07:34:39;;;;;;;;;4.50;4.50;;;;;-128.00;-1.00;-1.00;106030;1260;1003495;-29
2023/12/21 07:37:08;;;;;;;;;7.00;7.00;;;;;-128.00;-1.00;-1.00;106004;1254;1002763;-29
2023/12/21 07:39:36;;;;;;;;;8.33;6.33;;;;;-128.00;-1.00;-1.00;106013;1261;1007128;-29
2023/12/21 07:42:03;;;;;;;;;8.00;7.00;;;;;-128.00;-1.00;-1.00;106036;1254;1002267;-30
2023/12/21 07:44:32;;;;;;;;;7.67;7.33;;;;;-128.00;-1.00;-1.00;106039;1261;1003102;-30
2023/12/21 07:46:59;;;;;;;;;9.00;8.00;;;;;-128.00;-1.00;-1.00;106030;1261;1006888;-30
2023/12/21 07:49:26;;;;;;;;;7.00;7.00;;;;;-128.00;-1.00;-1.00;106009;1268;1002325;-30
2023/12/21 07:51:54;;;;;;;;;8.00;8.00;;;;;-128.00;-1.00;-1.00;106004;1261;1002426;-30
2023/12/21 07:54:21;;;;;;;;;10.00;10.00;;;;;-128.00;-1.00;-1.00;106033;1263;1002272;-30
2023/12/21 07:56:49;;;;;;;;;7.00;7.00;;;;;-128.00;-1.00;-1.00;106018;1263;1006890;-30
2023/12/21 07:59:17;;;;;;;;;7.00;7.00;;;;;-128.00;-1.00;-1.00;106024;1260;1002697;-30
2023/12/21 08:01:46;;;;;;;;;7.67;7.33;;;;;-128.00;-1.00;-1.00;106021;1261;1007184;-29
2023/12/21 08:04:13;;;;;;;;;10.00;7.67;;;;;-128.00;-1.00;-1.00;106001;1268;1007214;-29
2023/12/21 08:06:41;;;;;;;;;8.00;8.00;;;;;-128.00;-1.00;-1.00;106022;1254;1003044;-29
2023/12/21 08:09:08;;;;;;;;;10.00;8.00;;;;;-128.00;-1.00;-1.00;106060;1269;1002556;-30
2023/12/21 08:11:35;;;;;;;;;7.67;7.67;;;;;-128.00;-1.00;-1.00;106027;1261;1002859;-29
2023/12/21 08:14:03;;;;;;;;;10.00;8.00;;;;;-128.00;-1.00;-1.00;106073;1263;1002586;-30
2023/12/21 08:16:30;;;;;;;;;8.00;8.00;;;;;-128.00;-1.00;-1.00;106044;1263;1001995;-30
2023/12/21 08:18:58;;;;;;;;;7.33;7.00;;;;;-128.00;-1.00;-1.00;105843;1263;1002904;-30
2023/12/21 08:21:25;;;;;;;;;5.00;5.00;;;;;-128.00;-1.00;-1.00;105880;1254;1002797;-30
2023/12/21 08:23:53;;;;;;;;;8.00;7.00;;;;;-128.00;-1.00;-1.00;106221;1260;1002435;-29
2023/12/21 08:26:20;;;;;;;;;6.50;6.50;;;;;-128.00;-1.00;-1.00;106348;1260;1003157;-30
2023/12/21 08:28:48;;;;;;;;;6.00;5.00;;;;;-128.00;-1.00;-1.00;106375;1260;1002733;-29
2023/12/21 08:31:15;;;;;;;;;8.00;8.00;;;;;-128.00;-1.00;-1.00;106371;1254;1002471;-29
2023/12/21 08:33:43;;;;;;;;;5.00;5.00;;;;;-128.00;-1.00;-1.00;106354;1260;1002843;-29
2023/12/21 08:36:10;;;;;;;;;8.00;7.00;;;;;-128.00;-1.00;-1.00;106350;1260;1002802;-29
2023/12/21 08:38:38;;;;;;;;;4.50;4.50;;;;;-128.00;-1.00;-1.00;106353;1252;1003292;-30
2023/12/21 08:41:05;;;;;;;;;5.00;4.00;;;;;-128.00;-1.00;-1.00;106564;1257;1002603;-29
2023/12/21 08:43:33;;;;;;;;;4.67;4.00;;;;;-128.00;-1.00;-1.00;106622;1257;1004520;-29
2023/12/21 08:46:01;;;;;;;;;4.00;4.00;;;;;-128.00;-1.00;-1.00;106615;1251;1002970;-29
2023/12/21 08:48:28;;;;;;;;;4.00;4.00;;;;;-128.00;-1.00;-1.00;106580;1257;1002635;-29
2023/12/21 08:50:56;;;;;;;;;4.00;4.00;;;;;-128.00;-1.00;-1.00;106579;1250;1002340;-30
2023/12/21 08:53:23;;;;;;;;;4.00;4.00;;;;;-128.00;-1.00;-1.00;106551;1250;1003501;-30
2023/12/21 08:55:50;;;;;;;;;5.00;5.00;;;;;-128.00;-1.00;-1.00;106579;1257;1002723;-29
2023/12/21 08:58:18;;;;;;;;;4.50;4.00;;;;;-128.00;-1.00;-1.00;106572;1257;1002931;-30
2023/12/21 09:00:46;;;;;;;;;2.00;2.00;;;;;-128.00;-1.00;-1.00;106613;1257;1002858;-29
2023/12/21 09:03:13;;;;;;;;;4.00;4.00;;;;;-128.00;-1.00;-1.00;106601;1265;1002691;-29
2023/12/21 09:05:41;;;;;;;;;4.00;4.00;;;;;-128.00;-1.00;-1.00;106576;1257;1004389;-30
2023/12/21 09:08:08;;;;;;;;;4.00;4.00;;;;;-128.00;-1.00;-1.00;106575;1257;1003208;-30
2023/12/21 09:10:35;;;;;;;;;4.00;4.00;;;;;-128.00;-1.00;-1.00;106575;1257;1002740;-29
2023/12/21 09:13:03;;;;;;;;;4.00;4.00;;;;;-128.00;-1.00;-1.00;106556;1257;1002845;-30
2023/12/21 09:15:31;;;;;;;;;5.00;5.00;;;;;-128.00;-1.00;-1.00;106616;1249;1002400;-29
2023/12/21 09:17:59;;;;;;;;;4.00;4.00;;;;;-128.00;-1.00;-1.00;106609;1257;1003255;-30
2023/12/21 09:20:26;;;;;;;;;4.00;4.00;;;;;-128.00;-1.00;-1.00;106594;1257;1002763;-30
2023/12/21 09:22:53;;;;;;;;;4.67;4.00;;;;;-128.00;-1.00;-1.00;106587;1257;1002298;-30
2023/12/21 09:25:21;;;;;;;;;5.00;5.00;;;;;-128.00;-1.00;-1.00;106583;1257;1002843;-29
2023/12/21 09:27:49;;;;;;;;;4.67;4.00;;;;;-128.00;-1.00;-1.00;106597;1258;1002580;-30
2023/12/21 09:30:17;;;;;;;;;3.67;3.00;;;;;-128.00;-1.00;-1.00;106546;1257;1002752;-30
2023/12/21 09:32:45;;;;;;;;;4.00;4.00;;;;;-128.00;-1.00;-1.00;106571;1257;1006796;-30
2023/12/21 09:35:12;;;;;;;;;2.67;2.67;;;;;-128.00;-1.00;-1.00;106636;1257;1002248;-29
2023/12/21 09:37:40;;;;;;;;;4.00;4.00;;;;;-128.00;-1.00;-1.00;106602;1257;1002161;-30
2023/12/21 09:40:07;;;;;;;;;4.00;4.00;;;;;-128.00;-1.00;-1.00;106557;1257;1002482;-30
2023/12/21 09:42:35;;;;;;;;;4.00;4.00;;;;;-128.00;-1.00;-1.00;106569;1257;1002842;-30
2023/12/21 09:45:03;;;;;;;;;10.00;8.00;;;;;-128.00;-1.00;-1.00;106567;1257;1002704;-30
2023/12/21 09:47:30;;;;;;;;;11.00;10.00;;;;;-128.00;-1.00;-1.00;106549;1260;1002947;-29
2023/12/21 09:49:58;;;;;;;;;12.00;10.00;;;;;-128.00;-1.00;-1.00;106583;1257;1003031;-29
2023/12/21 09:52:25;;;;;;;;;16.00;14.00;;;;;-128.00;-1.00;-1.00;106583;1257;1002776;-29
2023/12/21 09:54:52;;;;;;;;;17.00;17.00;;;;;-128.00;-1.00;-1.00;106584;1257;1002872;-30
2023/12/21 09:57:20;;;;;;;;;17.00;16.50;;;;;-128.00;-1.00;-1.00;106554;1257;1002430;-30
2023/12/21 09:59:47;;;;;;;;;25.00;22.00;;;;;-128.00;-1.00;-1.00;106602;1257;1002398;-29
2023/12/21 10:02:15;;;;;;;;;18.00;17.33;;;;;-128.00;-1.00;-1.00;106588;1257;1005682;-30
2023/12/21 10:04:42;;;;;;;;;21.50;18.50;;;;;-128.00;-1.00;-1.00;106527;1265;1002756;-29
2023/12/21 10:07:10;;;;;;;;;21.50;19.00;;;;;-128.00;-1.00;-1.00;106596;1257;1002456;-30
2023/12/21 10:09:38;;;;;;;;;21.00;19.00;;;;;-128.00;-1.00;-1.00;106546;1265;1002737;-29
2023/12/21 10:12:05;;;;;;;;;18.50;16.00;;;;;-128.00;-1.00;-1.00;106586;1257;1002832;-30
2023/12/21 10:14:33;;;;;;;;;15.75;15.75;;;;;-128.00;-1.00;-1.00;106579;1265;1002779;-30
2023/12/21 10:17:00;;;;;;;;;18.50;18.50;;;;;-128.00;-1.00;-1.00;106587;1257;1002603;-30
2023/12/21 10:19:28;;;;;;;;;18.00;15.00;;;;;-128.00;-1.00;-1.00;106535;1257;1002844;-30
2023/12/21 10:21:56;;;;;;;;;13.00;13.00;;;;;-128.00;-1.00;-1.00;106570;1265;1002904;-29
2023/12/21 10:24:24;;;;;;;;;16.00;15.00;;;;;-128.00;-1.00;-1.00;106531;1257;1006504;-30
2023/12/21 10:26:52;;;;;;;;;15.00;15.00;;;;;-128.00;-1.00;-1.00;106598;1249;1002271;-29
2023/12/21 10:29:20;;;;;;;;;13.00;12.00;;;;;-128.00;-1.00;-1.00;106592;1250;1002423;-30
2023/12/21 10:31:47;;;;;;;;;17.00;15.00;;;;;-128.00;-1.00;-1.00;106574;1251;1002751;-30
2023/12/21 10:34:14;;;;;;;;;14.00;13.00;;;;;-128.00;-1.00;-1.00;106583;1257;1002462;-30
2023/12/21 10:36:42;;;;;;;;;14.00;13.00;;;;;-128.00;-1.00;-1.00;106589;1257;1002916;-29
2023/12/21 10:39:10;;;;;;;;;9.00;8.25;;;;;-128.00;-1.00;-1.00;106643;1257;1002501;-30
2023/12/21 10:41:37;;;;;;;;;10.00;10.00;;;;;-128.00;-1.00;-1.00;106592;1257;1002485;-29
2023/12/21 10:44:05;;;;;;;;;12.00;10.67;;;;;-128.00;-1.00;-1.00;106576;1257;1002515;-30
2023/12/21 10:46:32;;;;;;;;;12.67;12.67;;;;;-128.00;-1.00;-1.00;106556;1257;1005167;-29
2023/12/21 10:49:00;;;;;;;;;10.00;8.00;;;;;-128.00;-1.00;-1.00;106552;1257;1002641;-30
2023/12/21 10:51:28;;;;;;;;;12.00;9.00;;;;;-128.00;-1.00;-1.00;106612;1257;1005996;-29
2023/12/21 10:53:55;;;;;;;;;10.00;10.00;;;;;-128.00;-1.00;-1.00;106628;1257;1002825;-30
2023/12/21 10:56:23;;;;;;;;;12.00;10.50;;;;;-128.00;-1.00;-1.00;106587;1265;1003602;-30
2023/12/21 10:58:50;;;;;;;;;11.00;10.00;;;;;-128.00;-1.00;-1.00;106561;1258;1002763;-30
2023/12/21 11:01:18;;;;;;;;;8.00;8.00;;;;;-128.00;-1.00;-1.00;106559;1249;1002518;-29
2023/12/21 11:03:45;;;;;;;;;8.00;7.33;;;;;-128.00;-1.00;-1.00;106559;1249;1002949;-30
2023/12/21 11:06:12;;;;;;;;;10.00;10.00;;;;;-128.00;-1.00;-1.00;106586;1257;1002157;-30
2023/12/21 11:08:40;;;;;;;;;7.00;7.00;;;;;-128.00;-1.00;-1.00;106559;1264;1002708;-29
2023/12/21 11:11:07;;;;;;;;;10.00;8.00;;;;;-128.00;-1.00;-1.00;106559;1257;1002853;-30
2023/12/21 11:13:35;;;;;;;;;7.00;7.00;;;;;-128.00;-1.00;-1.00;106556;1257;1002518;-30
2023/12/21 11:16:02;;;;;;;;;7.00;7.00;;;;;-128.00;-1.00;-1.00;106592;1257;1002916;-30
2023/12/21 11:18:30;;;;;;;;;7.33;7.33;;;;;-128.00;-1.00;-1.00;106591;1257;1002569;-29